Terminal Aerodrome Forecast
Issued by NWS

Home | Current Version | Previous Version | Text Only | Print | Product List | Glossary On
Versions: 1 2 3 4 5 6 7 8 9 10 11 12 13 14 15 16 17 18 19 20 21 22 23 24 25 26 27 28 29 30 31 32 33 34 35 36 37 38
000
FTUS46 KOTX 261211 AAA
TAFSFF
TAF AMD
KSFF 261211Z 2612/2712 VRB03KT P6SM VCTS FEW030 BKN050CB BKN100
     FM261700 VRB04KT P6SM -SHRA BKN050 BKN100
     FM262000 VRB04KT P6SM -SHRA VCTS BKN050CB BKN100
     FM270400 VRB03KT P6SM VCSH SCT060 BKN100=

USA.gov is the U.S. government's official web portal to all federal, state and local government web resources and services.